sensor_id;sensor_type;location;lat;lon;timestamp;temperature;humidity
11650;DHT22;5881;48.522;7.682;2023-02-01T00:00:10;5.20;99.90
11650;DHT22;5881;48.522;7.682;2023-02-01T00:02:36;5.10;99.90
11650;DHT22;5881;48.522;7.682;2023-02-01T00:05:05;5.00;99.90
11650;DHT22;5881;48.522;7.682;2023-02-01T00:07:31;5.10;99.90
11650;DHT22;5881;48.522;7.682;2023-02-01T00:09:56;5.00;99.90
11650;DHT22;5881;48.522;7.682;2023-02-01T00:12:22;5.10;99.90
11650;DHT22;5881;48.522;7.682;2023-02-01T00:14:48;5.00;99.90
11650;DHT22;5881;48.522;7.682;2023-02-01T00:17:13;5.00;99.90
11650;DHT22;5881;48.522;7.682;2023-02-01T00:19:39;5.00;99.90
11650;DHT22;5881;48.522;7.682;2023-02-01T00:22:05;4.80;99.90
11650;DHT22;5881;48.522;7.682;2023-02-01T00:24:30;4.90;99.90
11650;DHT22;5881;48.522;7.682;2023-02-01T00:26:56;4.90;99.90
11650;DHT22;5881;48.522;7.682;2023-02-01T00:29:22;5.00;99.90
11650;DHT22;5881;48.522;7.682;2023-02-01T00:31:52;5.00;99.90
11650;DHT22;5881;48.522;7.682;2023-02-01T00:34:18;5.00;99.90
11650;DHT22;5881;48.522;7.682;2023-02-01T00:36:45;5.00;99.90
11650;DHT22;5881;48.522;7.682;2023-02-01T00:39:11;4.90;99.90
11650;DHT22;5881;48.522;7.682;2023-02-01T00:41:37;5.00;99.90
11650;DHT22;5881;48.522;7.682;2023-02-01T00:44:03;5.00;99.90
11650;DHT22;5881;48.522;7.682;2023-02-01T00:46:29;5.00;99.90
11650;DHT22;5881;48.522;7.682;2023-02-01T00:48:55;5.00;99.90
11650;DHT22;5881;48.522;7.682;2023-02-01T00:51:23;5.10;99.90
11650;DHT22;5881;48.522;7.682;2023-02-01T00:53:52;5.10;99.90
11650;DHT22;5881;48.522;7.682;2023-02-01T00:56:18;5.10;99.90
11650;DHT22;5881;48.522;7.682;2023-02-01T00:58:44;5.10;99.90
11650;DHT22;5881;48.522;7.682;2023-02-01T01:01:12;5.00;99.90
11650;DHT22;5881;48.522;7.682;2023-02-01T01:03:40;5.00;99.90
11650;DHT22;5881;48.522;7.682;2023-02-01T01:06:09;5.10;99.90
11650;DHT22;5881;48.522;7.682;2023-02-01T01:08:35;5.10;99.90
11650;DHT22;5881;48.522;7.682;2023-02-01T01:11:13;5.10;99.90
11650;DHT22;5881;48.522;7.682;2023-02-01T01:13:39;5.10;99.90
11650;DHT22;5881;48.522;7.682;2023-02-01T01:16:07;5.10;99.90
11650;DHT22;5881;48.522;7.682;2023-02-01T01:18:33;4.90;99.90
11650;DHT22;5881;48.522;7.682;2023-02-01T01:21:00;4.80;99.90
11650;DHT22;5881;48.522;7.682;2023-02-01T01:23:26;4.70;99.90
11650;DHT22;5881;48.522;7.682;2023-02-01T01:25:52;4.70;99.90
11650;DHT22;5881;48.522;7.682;2023-02-01T01:28:17;4.70;99.90
11650;DHT22;5881;48.522;7.682;2023-02-01T01:30:43;4.80;99.90
11650;DHT22;5881;48.522;7.682;2023-02-01T01:33:09;5.00;99.90
11650;DHT22;5881;48.522;7.682;2023-02-01T01:35:35;5.00;99.90
11650;DHT22;5881;48.522;7.682;2023-02-01T01:38:01;5.00;99.90
11650;DHT22;5881;48.522;7.682;2023-02-01T01:40:28;5.10;99.90
11650;DHT22;5881;48.522;7.682;2023-02-01T01:42:53;5.10;99.90
11650;DHT22;5881;48.522;7.682;2023-02-01T01:47:57;4.90;99.90
11650;DHT22;5881;48.522;7.682;2023-02-01T01:50:28;4.70;99.90
11650;DHT22;5881;48.522;7.682;2023-02-01T01:52:55;4.70;99.90
11650;DHT22;5881;48.522;7.682;2023-02-01T01:55:24;4.70;99.90
11650;DHT22;5881;48.522;7.682;2023-02-01T01:57:58;4.70;99.90
11650;DHT22;5881;48.522;7.682;2023-02-01T02:00:25;4.70;99.90
11650;DHT22;5881;48.522;7.682;2023-02-01T02:02:57;4.60;99.90
11650;DHT22;5881;48.522;7.682;2023-02-01T02:05:24;4.60;99.90
11650;DHT22;5881;48.522;7.682;2023-02-01T02:07:52;4.70;99.90
11650;DHT22;5881;48.522;7.682;2023-02-01T02:10:22;4.60;99.90
11650;DHT22;5881;48.522;7.682;2023-02-01T02:13:08;4.60;99.90
11650;DHT22;5881;48.522;7.682;2023-02-01T02:15:36;4.60;99.90
11650;DHT22;5881;48.522;7.682;2023-02-01T02:18:09;4.50;99.90
11650;DHT22;5881;48.522;7.682;2023-02-01T02:21:09;4.50;99.90
11650;DHT22;5881;48.522;7.682;2023-02-01T02:26:50;4.50;99.90
11650;DHT22;5881;48.522;7.682;2023-02-01T02:29:49;4.40;99.90
11650;DHT22;5881;48.522;7.682;2023-02-01T02:35:23;4.40;99.90
11650;DHT22;5881;48.522;7.682;2023-02-01T02:40:29;4.30;99.90
11650;DHT22;5881;48.522;7.682;2023-02-01T02:46:00;4.30;99.90
11650;DHT22;5881;48.522;7.682;2023-02-01T02:52:03;4.30;99.90
11650;DHT22;5881;48.522;7.682;2023-02-01T02:54:52;4.30;99.90
11650;DHT22;5881;48.522;7.682;2023-02-01T02:57:29;4.30;99.90
11650;DHT22;5881;48.522;7.682;2023-02-01T03:00:18;4.40;99.90
11650;DHT22;5881;48.522;7.682;2023-02-01T03:03:03;4.40;99.90
11650;DHT22;5881;48.522;7.682;2023-02-01T03:05:49;4.40;99.90
11650;DHT22;5881;48.522;7.682;2023-02-01T03:08:24;4.40;99.90
11650;DHT22;5881;48.522;7.682;2023-02-01T03:11:24;4.40;99.90
11650;DHT22;5881;48.522;7.682;2023-02-01T03:13:49;4.40;99.90
11650;DHT22;5881;48.522;7.682;2023-02-01T03:16:32;4.40;99.90
11650;DHT22;5881;48.522;7.682;2023-02-01T03:19:33;4.30;99.90
11650;DHT22;5881;48.522;7.682;2023-02-01T03:22:06;4.30;99.90
11650;DHT22;5881;48.522;7.682;2023-02-01T03:24:41;4.30;99.90
11650;DHT22;5881;48.522;7.682;2023-02-01T03:30:24;4.30;99.90
11650;DHT22;5881;48.522;7.682;2023-02-01T03:32:55;4.30;99.90
11650;DHT22;5881;48.522;7.682;2023-02-01T03:40:35;4.40;99.90
11650;DHT22;5881;48.522;7.682;2023-02-01T03:43:04;4.40;99.90
11650;DHT22;5881;48.522;7.682;2023-02-01T03:45:36;4.30;99.90
11650;DHT22;5881;48.522;7.682;2023-02-01T03:48:06;4.40;99.90
11650;DHT22;5881;48.522;7.682;2023-02-01T03:50:35;4.30;99.90
11650;DHT22;5881;48.522;7.682;2023-02-01T03:53:11;4.30;99.90
11650;DHT22;5881;48.522;7.682;2023-02-01T03:55:41;4.40;99.90
11650;DHT22;5881;48.522;7.682;2023-02-01T03:58:19;4.30;99.90
11650;DHT22;5881;48.522;7.682;2023-02-01T04:00:52;4.40;99.90
11650;DHT22;5881;48.522;7.682;2023-02-01T04:03:18;4.40;99.90
11650;DHT22;5881;48.522;7.682;2023-02-01T04:05:44;4.40;99.90
11650;DHT22;5881;48.522;7.682;2023-02-01T04:08:09;4.50;99.90
11650;DHT22;5881;48.522;7.682;2023-02-01T04:10:35;4.60;99.90
11650;DHT22;5881;48.522;7.682;2023-02-01T04:13:00;4.50;99.90
11650;DHT22;5881;48.522;7.682;2023-02-01T04:15:26;4.50;99.90
11650;DHT22;5881;48.522;7.682;2023-02-01T04:17:52;4.50;99.90
11650;DHT22;5881;48.522;7.682;2023-02-01T04:20:17;4.50;99.90
11650;DHT22;5881;48.522;7.682;2023-02-01T04:22:43;4.40;99.90
11650;DHT22;5881;48.522;7.682;2023-02-01T04:25:09;4.50;99.90
11650;DHT22;5881;48.522;7.682;2023-02-01T04:27:35;4.60;99.90
11650;DHT22;5881;48.522;7.682;2023-02-01T04:30:01;4.50;99.90
11650;DHT22;5881;48.522;7.682;2023-02-01T04:32:26;4.40;99.90
11650;DHT22;5881;48.522;7.682;2023-02-01T04:34:52;4.50;99.90
11650;DHT22;5881;48.522;7.682;2023-02-01T04:37:18;4.50;99.90
11650;DHT22;5881;48.522;7.682;2023-02-01T04:39:43;4.40;99.90
11650;DHT22;5881;48.522;7.682;2023-02-01T04:42:09;4.40;99.90
11650;DHT22;5881;48.522;7.682;2023-02-01T04:44:34;4.50;99.90
11650;DHT22;5881;48.522;7.682;2023-02-01T04:47:02;4.50;99.90
11650;DHT22;5881;48.522;7.682;2023-02-01T04:49:27;4.40;99.90
11650;DHT22;5881;48.522;7.682;2023-02-01T04:51:53;4.50;99.90
11650;DHT22;5881;48.522;7.682;2023-02-01T04:54:19;4.40;99.90
11650;DHT22;5881;48.522;7.682;2023-02-01T04:56:44;4.40;99.90
11650;DHT22;5881;48.522;7.682;2023-02-01T04:59:11;4.40;99.90
11650;DHT22;5881;48.522;7.682;2023-02-01T05:01:37;4.20;99.90
11650;DHT22;5881;48.522;7.682;2023-02-01T05:04:03;4.30;99.90
11650;DHT22;5881;48.522;7.682;2023-02-01T05:06:28;4.30;99.90
11650;DHT22;5881;48.522;7.682;2023-02-01T05:08:54;4.30;99.90
11650;DHT22;5881;48.522;7.682;2023-02-01T05:11:19;4.30;99.90
11650;DHT22;5881;48.522;7.682;2023-02-01T05:14:04;4.30;99.90
11650;DHT22;5881;48.522;7.682;2023-02-01T05:16:29;4.30;99.90
11650;DHT22;5881;48.522;7.682;2023-02-01T05:18:55;4.20;99.90
11650;DHT22;5881;48.522;7.682;2023-02-01T05:21:20;4.30;99.90
11650;DHT22;5881;48.522;7.682;2023-02-01T05:23:46;4.20;99.90
11650;DHT22;5881;48.522;7.682;2023-02-01T05:26:31;4.40;99.90
11650;DHT22;5881;48.522;7.682;2023-02-01T05:28:57;4.50;99.90
11650;DHT22;5881;48.522;7.682;2023-02-01T05:31:23;4.30;99.90
11650;DHT22;5881;48.522;7.682;2023-02-01T05:33:49;4.40;99.90
11650;DHT22;5881;48.522;7.682;2023-02-01T05:36:15;4.50;99.90
11650;DHT22;5881;48.522;7.682;2023-02-01T05:38:40;4.60;99.90
11650;DHT22;5881;48.522;7.682;2023-02-01T05:41:06;4.60;99.90
11650;DHT22;5881;48.522;7.682;2023-02-01T05:43:32;4.60;99.90
11650;DHT22;5881;48.522;7.682;2023-02-01T05:45:57;4.70;99.90
11650;DHT22;5881;48.522;7.682;2023-02-01T05:48:23;4.70;99.90
11650;DHT22;5881;48.522;7.682;2023-02-01T05:50:49;4.70;99.90
11650;DHT22;5881;48.522;7.682;2023-02-01T05:53:14;4.70;99.90
11650;DHT22;5881;48.522;7.682;2023-02-01T05:55:41;4.90;99.90
11650;DHT22;5881;48.522;7.682;2023-02-01T05:58:10;4.80;99.90
11650;DHT22;5881;48.522;7.682;2023-02-01T06:00:35;4.90;99.90
11650;DHT22;5881;48.522;7.682;2023-02-01T06:03:01;4.80;99.90
11650;DHT22;5881;48.522;7.682;2023-02-01T06:05:27;4.90;99.90
11650;DHT22;5881;48.522;7.682;2023-02-01T06:07:52;4.80;99.90
11650;DHT22;5881;48.522;7.682;2023-02-01T06:10:19;4.70;99.90
11650;DHT22;5881;48.522;7.682;2023-02-01T06:12:46;4.60;99.90
11650;DHT22;5881;48.522;7.682;2023-02-01T06:15:12;4.60;99.90
11650;DHT22;5881;48.522;7.682;2023-02-01T06:17:38;4.80;99.90
11650;DHT22;5881;48.522;7.682;2023-02-01T06:20:05;4.80;99.90
11650;DHT22;5881;48.522;7.682;2023-02-01T06:22:32;4.90;99.90
11650;DHT22;5881;48.522;7.682;2023-02-01T06:24:57;5.00;99.90
11650;DHT22;5881;48.522;7.682;2023-02-01T06:27:24;4.90;99.90
11650;DHT22;5881;48.522;7.682;2023-02-01T06:29:50;4.80;99.90
11650;DHT22;5881;48.522;7.682;2023-02-01T06:32:16;4.80;99.90
11650;DHT22;5881;48.522;7.682;2023-02-01T06:34:43;4.60;99.90
11650;DHT22;5881;48.522;7.682;2023-02-01T06:37:09;4.50;99.90
11650;DHT22;5881;48.522;7.682;2023-02-01T06:39:36;4.30;99.90
11650;DHT22;5881;48.522;7.682;2023-02-01T06:42:02;4.30;99.90
11650;DHT22;5881;48.522;7.682;2023-02-01T06:44:27;4.10;99.90
11650;DHT22;5881;48.522;7.682;2023-02-01T06:46:53;4.00;99.90
11650;DHT22;5881;48.522;7.682;2023-02-01T06:49:20;4.00;99.90
11650;DHT22;5881;48.522;7.682;2023-02-01T06:51:45;4.00;99.90
11650;DHT22;5881;48.522;7.682;2023-02-01T06:54:11;4.00;99.90
11650;DHT22;5881;48.522;7.682;2023-02-01T06:56:37;4.00;99.90
11650;DHT22;5881;48.522;7.682;2023-02-01T06:59:04;4.10;99.90
11650;DHT22;5881;48.522;7.682;2023-02-01T07:01:30;4.00;99.90
11650;DHT22;5881;48.522;7.682;2023-02-01T07:03:56;4.00;99.90
11650;DHT22;5881;48.522;7.682;2023-02-01T07:06:21;4.00;99.90
11650;DHT22;5881;48.522;7.682;2023-02-01T07:08:47;4.00;99.90
11650;DHT22;5881;48.522;7.682;2023-02-01T07:11:13;4.00;99.90
11650;DHT22;5881;48.522;7.682;2023-02-01T07:13:40;4.00;99.90
11650;DHT22;5881;48.522;7.682;2023-02-01T07:16:14;4.10;99.90
11650;DHT22;5881;48.522;7.682;2023-02-01T07:18:40;4.20;99.90
11650;DHT22;5881;48.522;7.682;2023-02-01T07:21:06;4.20;99.90
11650;DHT22;5881;48.522;7.682;2023-02-01T07:23:32;4.30;99.90
11650;DHT22;5881;48.522;7.682;2023-02-01T07:26:00;4.30;99.90
11650;DHT22;5881;48.522;7.682;2023-02-01T07:28:29;4.30;99.90
11650;DHT22;5881;48.522;7.682;2023-02-01T07:30:55;4.20;99.90
11650;DHT22;5881;48.522;7.682;2023-02-01T07:33:22;4.20;99.90
11650;DHT22;5881;48.522;7.682;2023-02-01T07:35:49;4.30;99.90
11650;DHT22;5881;48.522;7.682;2023-02-01T07:38:15;4.30;99.90
11650;DHT22;5881;48.522;7.682;2023-02-01T07:40:41;4.40;99.90
11650;DHT22;5881;48.522;7.682;2023-02-01T07:43:07;4.40;99.90
11650;DHT22;5881;48.522;7.682;2023-02-01T07:45:34;4.50;99.90
11650;DHT22;5881;48.522;7.682;2023-02-01T07:48:00;4.50;99.90
11650;DHT22;5881;48.522;7.682;2023-02-01T07:50:26;4.70;99.90
11650;DHT22;5881;48.522;7.682;2023-02-01T07:52:52;4.70;99.90
11650;DHT22;5881;48.522;7.682;2023-02-01T07:55:19;4.80;99.90
11650;DHT22;5881;48.522;7.682;2023-02-01T07:57:45;4.80;99.90
11650;DHT22;5881;48.522;7.682;2023-02-01T08:00:11;4.80;99.90
11650;DHT22;5881;48.522;7.682;2023-02-01T08:02:59;4.80;99.90
11650;DHT22;5881;48.522;7.682;2023-02-01T08:05:25;4.90;99.90
11650;DHT22;5881;48.522;7.682;2023-02-01T08:07:50;5.00;99.90
11650;DHT22;5881;48.522;7.682;2023-02-01T08:10:17;5.10;99.90
11650;DHT22;5881;48.522;7.682;2023-02-01T08:12:43;5.10;99.90
11650;DHT22;5881;48.522;7.682;2023-02-01T08:15:14;5.10;99.90
11650;DHT22;5881;48.522;7.682;2023-02-01T08:17:45;5.10;99.90
11650;DHT22;5881;48.522;7.682;2023-02-01T08:20:11;5.10;99.90
11650;DHT22;5881;48.522;7.682;2023-02-01T08:22:37;5.20;99.90
11650;DHT22;5881;48.522;7.682;2023-02-01T08:25:03;5.30;99.90
11650;DHT22;5881;48.522;7.682;2023-02-01T08:27:28;5.40;99.90
11650;DHT22;5881;48.522;7.682;2023-02-01T08:29:54;5.40;99.90
11650;DHT22;5881;48.522;7.682;2023-02-01T08:32:19;5.60;99.90
11650;DHT22;5881;48.522;7.682;2023-02-01T08:34:45;5.70;99.90
11650;DHT22;5881;48.522;7.682;2023-02-01T08:37:11;5.90;99.90
11650;DHT22;5881;48.522;7.682;2023-02-01T08:39:36;6.00;99.90
11650;DHT22;5881;48.522;7.682;2023-02-01T08:42:02;6.10;99.90
11650;DHT22;5881;48.522;7.682;2023-02-01T08:44:46;6.20;99.90
11650;DHT22;5881;48.522;7.682;2023-02-01T08:47:12;6.20;99.90
11650;DHT22;5881;48.522;7.682;2023-02-01T08:49:38;6.20;99.90
11650;DHT22;5881;48.522;7.682;2023-02-01T08:52:03;6.20;99.90
11650;DHT22;5881;48.522;7.682;2023-02-01T08:54:29;6.10;99.90
11650;DHT22;5881;48.522;7.682;2023-02-01T08:56:55;6.00;99.90
11650;DHT22;5881;48.522;7.682;2023-02-01T08:59:21;5.90;99.90
11650;DHT22;5881;48.522;7.682;2023-02-01T09:01:47;5.90;99.90
11650;DHT22;5881;48.522;7.682;2023-02-01T09:04:12;6.00;99.90
11650;DHT22;5881;48.522;7.682;2023-02-01T09:06:40;6.10;99.90
11650;DHT22;5881;48.522;7.682;2023-02-01T09:09:06;6.10;99.90
11650;DHT22;5881;48.522;7.682;2023-02-01T09:11:32;6.00;99.90
11650;DHT22;5881;48.522;7.682;2023-02-01T09:13:57;6.00;99.90
11650;DHT22;5881;48.522;7.682;2023-02-01T09:16:23;6.10;99.90
11650;DHT22;5881;48.522;7.682;2023-02-01T09:18:49;6.00;99.90
11650;DHT22;5881;48.522;7.682;2023-02-01T09:21:14;6.00;99.90
11650;DHT22;5881;48.522;7.682;2023-02-01T09:23:40;6.20;99.90
11650;DHT22;5881;48.522;7.682;2023-02-01T09:26:06;6.20;99.90
11650;DHT22;5881;48.522;7.682;2023-02-01T09:28:32;6.20;99.90
11650;DHT22;5881;48.522;7.682;2023-02-01T09:30:59;6.30;99.90
11650;DHT22;5881;48.522;7.682;2023-02-01T09:33:26;6.30;99.90
11650;DHT22;5881;48.522;7.682;2023-02-01T09:35:59;6.40;99.90
11650;DHT22;5881;48.522;7.682;2023-02-01T09:38:26;6.30;99.90
11650;DHT22;5881;48.522;7.682;2023-02-01T09:40:53;5.90;99.90
11650;DHT22;5881;48.522;7.682;2023-02-01T09:43:29;5.70;99.90
11650;DHT22;5881;48.522;7.682;2023-02-01T09:48:45;5.50;99.90
11650;DHT22;5881;48.522;7.682;2023-02-01T09:51:20;5.60;99.90
11650;DHT22;5881;48.522;7.682;2023-02-01T09:54:01;5.60;99.90
11650;DHT22;5881;48.522;7.682;2023-02-01T09:56:51;5.80;99.90
11650;DHT22;5881;48.522;7.682;2023-02-01T10:01:47;6.10;99.90
11650;DHT22;5881;48.522;7.682;2023-02-01T10:04:14;6.10;99.90
11650;DHT22;5881;48.522;7.682;2023-02-01T10:17:49;6.40;99.90
11650;DHT22;5881;48.522;7.682;2023-02-01T10:23:11;6.40;99.90
11650;DHT22;5881;48.522;7.682;2023-02-01T10:25:55;6.40;99.90
11650;DHT22;5881;48.522;7.682;2023-02-01T10:28:22;6.40;99.90
11650;DHT22;5881;48.522;7.682;2023-02-01T10:30:53;6.40;99.90
11650;DHT22;5881;48.522;7.682;2023-02-01T10:36:29;6.50;99.90
11650;DHT22;5881;48.522;7.682;2023-02-01T10:39:00;6.60;99.90
11650;DHT22;5881;48.522;7.682;2023-02-01T10:41:31;6.70;99.90
11650;DHT22;5881;48.522;7.682;2023-02-01T10:43:59;6.70;99.90
11650;DHT22;5881;48.522;7.682;2023-02-01T10:46:26;6.70;99.90
11650;DHT22;5881;48.522;7.682;2023-02-01T10:48:55;6.70;99.90
11650;DHT22;5881;48.522;7.682;2023-02-01T10:51:26;6.70;99.90
11650;DHT22;5881;48.522;7.682;2023-02-01T10:54:00;6.80;99.90
11650;DHT22;5881;48.522;7.682;2023-02-01T10:56:29;6.80;99.90
11650;DHT22;5881;48.522;7.682;2023-02-01T10:59:05;6.80;99.90
11650;DHT22;5881;48.522;7.682;2023-02-01T11:01:31;6.80;99.90
11650;DHT22;5881;48.522;7.682;2023-02-01T11:04:01;6.80;99.90
11650;DHT22;5881;48.522;7.682;2023-02-01T11:06:41;6.80;99.90
11650;DHT22;5881;48.522;7.682;2023-02-01T11:11:57;6.70;99.90
11650;DHT22;5881;48.522;7.682;2023-02-01T11:14:32;6.60;99.90
11650;DHT22;5881;48.522;7.682;2023-02-01T11:17:01;6.70;99.90
11650;DHT22;5881;48.522;7.682;2023-02-01T11:19:27;6.70;99.90
11650;DHT22;5881;48.522;7.682;2023-02-01T11:21:57;6.70;99.90
11650;DHT22;5881;48.522;7.682;2023-02-01T11:24:34;7.00;99.90
11650;DHT22;5881;48.522;7.682;2023-02-01T11:27:05;7.10;99.90
11650;DHT22;5881;48.522;7.682;2023-02-01T11:29:43;7.10;99.90
11650;DHT22;5881;48.522;7.682;2023-02-01T11:32:10;7.20;99.90
11650;DHT22;5881;48.522;7.682;2023-02-01T11:34:44;7.20;99.90
11650;DHT22;5881;48.522;7.682;2023-02-01T11:39:54;7.20;99.90
11650;DHT22;5881;48.522;7.682;2023-02-01T11:42:20;7.20;99.90
11650;DHT22;5881;48.522;7.682;2023-02-01T11:44:46;7.20;99.90
11650;DHT22;5881;48.522;7.682;2023-02-01T11:49:44;7.10;99.90
11650;DHT22;5881;48.522;7.682;2023-02-01T11:52:12;7.10;99.90
11650;DHT22;5881;48.522;7.682;2023-02-01T12:06:48;7.00;99.90
11650;DHT22;5881;48.522;7.682;2023-02-01T12:09:36;6.90;99.90
11650;DHT22;5881;48.522;7.682;2023-02-01T12:12:16;6.90;99.90
11650;DHT22;5881;48.522;7.682;2023-02-01T12:17:55;6.80;99.90
11650;DHT22;5881;48.522;7.682;2023-02-01T12:20:54;6.80;99.90
11650;DHT22;5881;48.522;7.682;2023-02-01T12:33:54;7.50;99.90
11650;DHT22;5881;48.522;7.682;2023-02-01T12:36:34;7.50;99.90
11650;DHT22;5881;48.522;7.682;2023-02-01T12:41:50;7.40;99.90
11650;DHT22;5881;48.522;7.682;2023-02-01T12:47:18;7.70;99.90
11650;DHT22;5881;48.522;7.682;2023-02-01T12:49:47;7.70;99.90
11650;DHT22;5881;48.522;7.682;2023-02-01T12:52:32;7.90;99.90
11650;DHT22;5881;48.522;7.682;2023-02-01T12:57:36;7.90;99.90
11650;DHT22;5881;48.522;7.682;2023-02-01T13:00:25;7.90;99.90
11650;DHT22;5881;48.522;7.682;2023-02-01T13:03:05;7.90;99.90
11650;DHT22;5881;48.522;7.682;2023-02-01T13:08:22;7.70;99.90
11650;DHT22;5881;48.522;7.682;2023-02-01T13:10:59;7.70;99.90
11650;DHT22;5881;48.522;7.682;2023-02-01T13:13:35;7.60;99.90
11650;DHT22;5881;48.522;7.682;2023-02-01T13:16:15;7.60;99.90
11650;DHT22;5881;48.522;7.682;2023-02-01T13:18:46;7.60;99.90
11650;DHT22;5881;48.522;7.682;2023-02-01T13:21:17;7.60;99.90
11650;DHT22;5881;48.522;7.682;2023-02-01T13:23:46;7.60;99.90
11650;DHT22;5881;48.522;7.682;2023-02-01T13:26:18;7.60;99.90
11650;DHT22;5881;48.522;7.682;2023-02-01T13:28:49;7.50;99.90
11650;DHT22;5881;48.522;7.682;2023-02-01T13:37:44;7.20;99.90
11650;DHT22;5881;48.522;7.682;2023-02-01T13:40:39;7.10;99.90
11650;DHT22;5881;48.522;7.682;2023-02-01T13:43:26;7.10;99.90
11650;DHT22;5881;48.522;7.682;2023-02-01T13:45:56;7.10;99.90
11650;DHT22;5881;48.522;7.682;2023-02-01T13:48:41;7.10;99.90
11650;DHT22;5881;48.522;7.682;2023-02-01T13:51:12;7.20;99.90
11650;DHT22;5881;48.522;7.682;2023-02-01T13:53:47;7.30;99.90
11650;DHT22;5881;48.522;7.682;2023-02-01T13:56:18;7.40;99.90
11650;DHT22;5881;48.522;7.682;2023-02-01T13:58:46;7.40;99.90
11650;DHT22;5881;48.522;7.682;2023-02-01T14:11:50;7.00;99.90
11650;DHT22;5881;48.522;7.682;2023-02-01T14:16:43;6.90;99.90
11650;DHT22;5881;48.522;7.682;2023-02-01T14:19:20;6.90;99.90
11650;DHT22;5881;48.522;7.682;2023-02-01T14:21:51;6.90;99.90
11650;DHT22;5881;48.522;7.682;2023-02-01T14:29:34;7.00;99.90
11650;DHT22;5881;48.522;7.682;2023-02-01T14:32:21;7.00;99.90
11650;DHT22;5881;48.522;7.682;2023-02-01T14:55:50;7.10;99.90
11650;DHT22;5881;48.522;7.682;2023-02-01T15:01:12;7.00;99.90
11650;DHT22;5881;48.522;7.682;2023-02-01T15:03:53;7.00;99.90
11650;DHT22;5881;48.522;7.682;2023-02-01T15:06:41;7.10;99.90
11650;DHT22;5881;48.522;7.682;2023-02-01T15:09:16;7.10;99.90
11650;DHT22;5881;48.522;7.682;2023-02-01T15:11:55;7.00;99.90
11650;DHT22;5881;48.522;7.682;2023-02-01T15:14:21;7.00;99.90
11650;DHT22;5881;48.522;7.682;2023-02-01T15:16:47;7.10;99.90
11650;DHT22;5881;48.522;7.682;2023-02-01T15:19:20;7.10;99.90
11650;DHT22;5881;48.522;7.682;2023-02-01T15:21:50;7.10;99.90
11650;DHT22;5881;48.522;7.682;2023-02-01T15:24:21;7.00;99.90
11650;DHT22;5881;48.522;7.682;2023-02-01T15:26:47;7.00;99.90
11650;DHT22;5881;48.522;7.682;2023-02-01T15:29:14;7.10;99.90
11650;DHT22;5881;48.522;7.682;2023-02-01T15:31:46;7.00;99.90
11650;DHT22;5881;48.522;7.682;2023-02-01T15:34:12;7.10;99.90
11650;DHT22;5881;48.522;7.682;2023-02-01T15:36:39;7.20;99.90
11650;DHT22;5881;48.522;7.682;2023-02-01T15:41:37;7.00;99.90
11650;DHT22;5881;48.522;7.682;2023-02-01T15:44:17;6.90;99.90
11650;DHT22;5881;48.522;7.682;2023-02-01T15:46:46;6.90;99.90
11650;DHT22;5881;48.522;7.682;2023-02-01T15:49:36;6.90;99.90
11650;DHT22;5881;48.522;7.682;2023-02-01T15:52:03;6.90;99.90
11650;DHT22;5881;48.522;7.682;2023-02-01T15:54:45;6.90;99.90
11650;DHT22;5881;48.522;7.682;2023-02-01T15:57:12;6.80;99.90
11650;DHT22;5881;48.522;7.682;2023-02-01T15:59:45;6.80;99.90
11650;DHT22;5881;48.522;7.682;2023-02-01T16:04:58;6.80;99.90
11650;DHT22;5881;48.522;7.682;2023-02-01T16:07:31;6.70;99.90
11650;DHT22;5881;48.522;7.682;2023-02-01T16:10:00;6.60;99.90
11650;DHT22;5881;48.522;7.682;2023-02-01T16:12:46;6.70;99.90
11650;DHT22;5881;48.522;7.682;2023-02-01T16:15:12;6.70;99.90
11650;DHT22;5881;48.522;7.682;2023-02-01T16:17:38;6.60;99.90
11650;DHT22;5881;48.522;7.682;2023-02-01T16:20:04;6.60;99.90
11650;DHT22;5881;48.522;7.682;2023-02-01T16:22:30;6.50;99.90
11650;DHT22;5881;48.522;7.682;2023-02-01T16:24:55;6.40;99.90
11650;DHT22;5881;48.522;7.682;2023-02-01T16:27:21;6.50;99.90
11650;DHT22;5881;48.522;7.682;2023-02-01T16:29:48;6.60;99.90
11650;DHT22;5881;48.522;7.682;2023-02-01T16:32:19;6.50;99.90
11650;DHT22;5881;48.522;7.682;2023-02-01T16:34:46;6.50;99.90
11650;DHT22;5881;48.522;7.682;2023-02-01T16:37:24;6.50;99.90
11650;DHT22;5881;48.522;7.682;2023-02-01T16:39:51;6.60;99.90
11650;DHT22;5881;48.522;7.682;2023-02-01T16:42:17;6.60;99.90
11650;DHT22;5881;48.522;7.682;2023-02-01T16:44:43;6.50;99.90
11650;DHT22;5881;48.522;7.682;2023-02-01T16:47:16;6.60;99.90
11650;DHT22;5881;48.522;7.682;2023-02-01T16:49:42;6.60;99.90
11650;DHT22;5881;48.522;7.682;2023-02-01T16:52:17;6.50;99.90
11650;DHT22;5881;48.522;7.682;2023-02-01T16:54:44;6.50;99.90
11650;DHT22;5881;48.522;7.682;2023-02-01T16:57:14;6.70;99.90
11650;DHT22;5881;48.522;7.682;2023-02-01T16:59:41;6.60;99.90
11650;DHT22;5881;48.522;7.682;2023-02-01T17:02:25;6.50;99.90
11650;DHT22;5881;48.522;7.682;2023-02-01T17:04:52;6.40;99.90
11650;DHT22;5881;48.522;7.682;2023-02-01T17:07:18;6.60;99.90
11650;DHT22;5881;48.522;7.682;2023-02-01T17:09:45;6.80;99.90
11650;DHT22;5881;48.522;7.682;2023-02-01T17:12:23;6.60;99.90
11650;DHT22;5881;48.522;7.682;2023-02-01T17:14:49;6.50;99.90
11650;DHT22;5881;48.522;7.682;2023-02-01T17:17:16;6.50;99.90
11650;DHT22;5881;48.522;7.682;2023-02-01T17:19:43;6.50;99.90
11650;DHT22;5881;48.522;7.682;2023-02-01T17:22:09;6.60;99.90
11650;DHT22;5881;48.522;7.682;2023-02-01T17:24:38;6.40;99.90
11650;DHT22;5881;48.522;7.682;2023-02-01T17:27:04;6.20;99.90
11650;DHT22;5881;48.522;7.682;2023-02-01T17:29:29;6.10;99.90
11650;DHT22;5881;48.522;7.682;2023-02-01T17:31:55;6.20;99.90
11650;DHT22;5881;48.522;7.682;2023-02-01T17:34:21;6.10;99.90
11650;DHT22;5881;48.522;7.682;2023-02-01T17:36:47;6.10;99.90
11650;DHT22;5881;48.522;7.682;2023-02-01T17:39:14;6.10;99.90
11650;DHT22;5881;48.522;7.682;2023-02-01T17:42:01;6.00;99.90
11650;DHT22;5881;48.522;7.682;2023-02-01T17:44:26;6.10;99.90
11650;DHT22;5881;48.522;7.682;2023-02-01T17:46:52;6.10;99.90
11650;DHT22;5881;48.522;7.682;2023-02-01T17:49:18;6.10;99.90
11650;DHT22;5881;48.522;7.682;2023-02-01T17:51:43;6.10;99.90
11650;DHT22;5881;48.522;7.682;2023-02-01T17:54:12;6.10;99.90
11650;DHT22;5881;48.522;7.682;2023-02-01T17:56:38;6.20;99.90
11650;DHT22;5881;48.522;7.682;2023-02-01T17:59:03;6.30;99.90
11650;DHT22;5881;48.522;7.682;2023-02-01T18:01:29;6.20;99.90
11650;DHT22;5881;48.522;7.682;2023-02-01T18:03:55;6.30;99.90
11650;DHT22;5881;48.522;7.682;2023-02-01T18:06:22;6.40;99.90
11650;DHT22;5881;48.522;7.682;2023-02-01T18:08:48;6.30;99.90
11650;DHT22;5881;48.522;7.682;2023-02-01T18:11:17;6.40;99.90
11650;DHT22;5881;48.522;7.682;2023-02-01T18:13:44;6.40;99.90
11650;DHT22;5881;48.522;7.682;2023-02-01T18:18:45;6.40;99.90
11650;DHT22;5881;48.522;7.682;2023-02-01T18:21:11;6.40;99.90
11650;DHT22;5881;48.522;7.682;2023-02-01T18:23:37;6.50;99.90
11650;DHT22;5881;48.522;7.682;2023-02-01T18:26:02;6.50;99.90
11650;DHT22;5881;48.522;7.682;2023-02-01T18:28:29;6.50;99.90
11650;DHT22;5881;48.522;7.682;2023-02-01T18:30:55;6.50;99.90
11650;DHT22;5881;48.522;7.682;2023-02-01T18:33:21;6.50;99.90
11650;DHT22;5881;48.522;7.682;2023-02-01T18:35:48;6.50;99.90
11650;DHT22;5881;48.522;7.682;2023-02-01T18:38:14;6.50;99.90
11650;DHT22;5881;48.522;7.682;2023-02-01T18:40:48;6.50;99.90
11650;DHT22;5881;48.522;7.682;2023-02-01T18:43:14;6.60;99.90
11650;DHT22;5881;48.522;7.682;2023-02-01T18:45:42;6.60;99.90